createdAt,value
2023-04-12T00:00:37.059Z,51.051659
2023-04-12T00:01:38.033Z,51.051640
2023-04-12T00:02:37.507Z,51.051643
2023-04-12T00:03:37.185Z,51.051659
2023-04-12T00:04:37.163Z,51.051632
2023-04-12T00:05:37.020Z,51.051655
2023-04-12T00:06:37.037Z,51.051682
2023-04-12T00:07:37.024Z,51.051640
2023-04-12T00:08:37.009Z,51.051659
2023-04-12T00:09:37.012Z,51.051632
2023-04-12T00:10:36.980Z,51.051655
2023-04-12T00:11:37.012Z,51.051651
2023-04-12T00:12:37.010Z,51.051609
2023-04-12T00:13:36.973Z,51.051620
2023-04-12T00:14:36.958Z,51.051624
2023-04-12T00:15:37.077Z,51.051628
2023-04-12T00:16:36.959Z,51.051647
2023-04-12T00:17:36.999Z,51.051659
2023-04-12T00:18:36.943Z,51.051651
2023-04-12T00:19:37.943Z,51.051647
2023-04-12T00:20:36.925Z,51.051647
2023-04-12T00:21:36.914Z,51.051632
2023-04-12T00:22:36.998Z,51.051586
2023-04-12T00:23:36.914Z,51.051643
2023-04-12T00:24:36.903Z,51.051643
2023-04-12T00:25:36.892Z,51.051659
2023-04-12T00:26:36.883Z,51.051628
2023-04-12T00:27:37.124Z,51.051659
2023-04-12T00:28:36.861Z,51.051670
2023-04-12T00:29:36.868Z,51.051640
2023-04-12T00:30:36.852Z,51.051632
2023-04-12T00:31:36.879Z,51.051640
2023-04-12T00:32:36.975Z,51.051643
2023-04-12T00:33:36.842Z,51.051640
2023-04-12T00:34:36.814Z,51.051636
2023-04-12T00:35:36.857Z,51.051582
2023-04-12T00:36:36.811Z,51.051636
2023-04-12T00:37:36.831Z,51.051640
2023-04-12T00:38:36.788Z,51.051628
2023-04-12T00:39:36.886Z,51.051647
2023-04-12T00:40:36.787Z,51.051632
2023-04-12T00:41:36.778Z,51.051643
2023-04-12T00:42:36.798Z,51.051655
2023-04-12T00:43:36.759Z,51.051636
2023-04-12T00:44:36.753Z,51.051609
2023-04-12T00:45:36.748Z,51.051643
2023-04-12T00:46:36.772Z,51.051659
2023-04-12T00:47:36.827Z,51.051647
2023-04-12T00:48:36.730Z,51.051647
2023-04-12T00:49:36.713Z,51.051643
2023-04-12T00:50:36.704Z,51.051605
2023-04-12T00:51:36.697Z,51.051586
2023-04-12T00:52:36.724Z,51.051678
2023-04-12T00:53:36.683Z,51.051609
2023-04-12T00:54:36.683Z,51.051613
2023-04-12T00:55:36.668Z,51.051624
2023-04-12T00:56:36.674Z,51.051628
2023-04-12T00:57:36.695Z,51.051659
2023-04-12T00:58:36.833Z,51.051708
2023-04-12T00:59:36.632Z,51.051697
2023-04-12T01:00:36.716Z,51.051659
2023-04-12T01:01:36.677Z,51.051643
2023-04-12T01:02:36.761Z,51.051651
2023-04-12T01:03:36.696Z,51.051647
2023-04-12T01:04:36.612Z,51.051655
2023-04-12T01:05:36.595Z,51.051628
2023-04-12T01:06:36.589Z,51.051640
2023-04-12T01:07:36.600Z,51.051655
2023-04-12T01:08:36.590Z,51.051632
2023-04-12T01:09:36.568Z,51.051636
2023-04-12T01:10:36.559Z,51.051632
2023-04-12T01:11:36.562Z,51.051647
2023-04-12T01:12:36.597Z,51.051628
2023-04-12T01:13:36.540Z,51.051640
2023-04-12T01:14:36.532Z,51.051712
2023-04-12T01:15:36.522Z,51.051693
2023-04-12T01:16:36.559Z,51.051662
2023-04-12T01:17:36.552Z,51.051655
2023-04-12T01:18:36.507Z,51.051647
2023-04-12T01:19:36.488Z,51.051647
2023-04-12T01:20:36.502Z,51.051643
2023-04-12T01:21:36.471Z,51.051662
2023-04-12T01:22:37.163Z,51.051640
2023-04-12T01:23:36.493Z,51.051632
2023-04-12T01:24:36.473Z,51.051651
2023-04-12T01:25:36.457Z,51.051624
2023-04-12T01:26:36.469Z,51.051613
2023-04-12T01:27:36.459Z,51.051662
2023-04-12T01:28:36.429Z,51.051670
2023-04-12T01:29:36.441Z,51.051662
2023-04-12T01:30:36.425Z,51.051643
2023-04-12T01:31:36.470Z,51.051659
2023-04-12T01:32:36.471Z,51.051643
2023-04-12T01:33:36.392Z,51.051643
2023-04-12T01:34:36.397Z,51.051666
2023-04-12T01:35:36.413Z,51.051640
2023-04-12T01:36:36.392Z,51.051643
2023-04-12T01:37:36.397Z,51.051632
2023-04-12T01:38:36.367Z,51.051655
2023-04-12T01:39:36.368Z,51.051662
2023-04-12T01:40:36.359Z,51.051640
2023-04-12T01:41:36.346Z,51.051662
2023-04-12T01:42:36.368Z,51.051647
2023-04-12T01:43:36.329Z,51.051666
2023-04-12T01:44:36.323Z,51.051659
2023-04-12T01:45:36.413Z,51.051685
2023-04-12T01:46:36.320Z,51.051731
2023-04-12T01:47:36.359Z,51.051723
2023-04-12T01:48:36.307Z,51.051636
2023-04-12T01:49:36.285Z,51.051598
2023-04-12T01:50:36.278Z,51.051640
2023-04-12T01:51:36.269Z,51.051662
2023-04-12T01:52:36.295Z,51.051659
2023-04-12T01:53:36.252Z,51.051651
2023-04-12T01:54:36.249Z,51.051655
2023-04-12T01:55:36.337Z,51.051701
2023-04-12T01:56:36.890Z,51.051655
2023-04-12T01:57:36.419Z,51.051640
2023-04-12T01:58:36.237Z,51.051651
2023-04-12T01:59:36.222Z,51.051662
2023-04-12T02:00:36.215Z,51.051647
2023-04-12T02:01:36.346Z,51.051636
2023-04-12T02:02:36.304Z,51.051659
2023-04-12T02:03:36.259Z,51.051723
2023-04-12T02:04:36.190Z,51.051666
2023-04-12T02:05:36.187Z,51.051624
2023-04-12T02:06:36.164Z,51.051617
2023-04-12T02:07:36.190Z,51.051620
2023-04-12T02:08:36.148Z,51.051632
2023-04-12T02:09:36.155Z,51.051651
2023-04-12T02:10:36.131Z,51.051662
2023-04-12T02:11:36.141Z,51.051651
2023-04-12T02:12:36.148Z,51.051670
2023-04-12T02:13:36.130Z,51.051723
2023-04-12T02:14:36.133Z,51.051693
2023-04-12T02:15:36.104Z,51.051678
2023-04-12T02:16:36.163Z,51.051746
2023-04-12T02:17:36.205Z,51.051712
2023-04-12T02:18:36.077Z,51.051777
2023-04-12T02:19:36.072Z,51.051739
2023-04-12T02:20:36.062Z,51.051685
2023-04-12T02:21:36.054Z,51.051670
2023-04-12T02:22:36.066Z,51.051689
2023-04-12T02:23:36.032Z,51.051674
2023-04-12T02:24:36.028Z,51.051651
2023-04-12T02:25:36.017Z,51.051651
2023-04-12T02:26:36.016Z,51.051674
2023-04-12T02:27:36.021Z,51.051685
2023-04-12T02:28:36.004Z,51.051682
2023-04-12T02:29:36.011Z,51.051647
2023-04-12T02:30:36.068Z,51.051666
2023-04-12T02:31:35.980Z,51.051689
2023-04-12T02:32:36.019Z,51.051666
2023-04-12T02:33:35.975Z,51.051662
2023-04-12T02:34:35.964Z,51.051662
2023-04-12T02:35:35.979Z,51.051678
2023-04-12T02:36:35.940Z,51.051651
2023-04-12T02:37:35.958Z,51.051693
2023-04-12T02:38:35.937Z,51.051704
2023-04-12T02:39:35.921Z,51.051674
2023-04-12T02:40:35.908Z,51.051678
2023-04-12T02:41:35.919Z,51.051670
2023-04-12T02:42:35.939Z,51.051666
2023-04-12T02:43:35.894Z,51.051651
2023-04-12T02:44:35.878Z,51.051674
2023-04-12T02:45:35.904Z,51.051659
2023-04-12T02:46:35.934Z,51.051647
2023-04-12T02:47:36.021Z,51.051659
2023-04-12T02:48:35.859Z,51.051655
2023-04-12T02:49:35.854Z,51.051655
2023-04-12T02:50:35.840Z,51.051685
2023-04-12T02:51:35.860Z,51.051674
2023-04-12T02:52:35.846Z,51.051674
2023-04-12T02:53:35.822Z,51.051685
2023-04-12T02:54:35.837Z,51.051670
2023-04-12T02:55:35.809Z,51.051659
2023-04-12T02:56:35.806Z,51.051662
2023-04-12T02:57:35.821Z,51.051624
2023-04-12T02:58:35.814Z,51.051678
2023-04-12T02:59:35.777Z,51.051666
2023-04-12T03:00:35.789Z,51.051682
2023-04-12T03:01:35.793Z,51.051651
2023-04-12T03:02:35.886Z,51.051651
2023-04-12T03:03:36.148Z,51.051674
2023-04-12T03:04:35.757Z,51.051674
2023-04-12T03:05:35.734Z,51.051617
2023-04-12T03:06:35.744Z,51.051643
2023-04-12T03:07:35.782Z,51.051697
2023-04-12T03:08:35.730Z,51.051685
2023-04-12T03:09:35.717Z,51.051662
2023-04-12T03:10:35.719Z,51.051662
2023-04-12T03:11:35.702Z,51.051659
2023-04-12T03:12:35.730Z,51.051647
2023-04-12T03:13:35.682Z,51.051647
2023-04-12T03:14:35.677Z,51.051678
2023-04-12T03:15:35.720Z,51.051678
2023-04-12T03:16:35.675Z,51.051666
2023-04-12T03:17:35.679Z,51.051651
2023-04-12T03:18:35.650Z,51.051666
2023-04-12T03:19:35.676Z,51.051712
2023-04-12T03:20:35.630Z,51.051682
2023-04-12T03:21:35.630Z,51.051678
2023-04-12T03:22:35.640Z,51.051701
2023-04-12T03:23:35.605Z,51.051670
2023-04-12T03:24:35.601Z,51.051693
2023-04-12T03:25:35.593Z,51.051632
2023-04-12T03:26:35.587Z,51.051659
2023-04-12T03:27:35.774Z,51.051674
2023-04-12T03:28:35.574Z,51.051685
2023-04-12T03:29:35.567Z,51.051701
2023-04-12T03:30:35.573Z,51.051662
2023-04-12T03:31:35.716Z,51.051674
2023-04-12T03:32:35.605Z,51.051682
2023-04-12T03:33:35.558Z,51.051647
2023-04-12T03:34:35.549Z,51.051682
2023-04-12T03:35:35.531Z,51.051727
2023-04-12T03:36:35.534Z,51.051701
2023-04-12T03:37:35.686Z,51.051720
2023-04-12T03:38:35.507Z,51.051708
2023-04-12T03:39:35.492Z,51.051735
2023-04-12T03:40:35.493Z,51.051739
2023-04-12T03:41:35.495Z,51.051746
2023-04-12T03:42:35.494Z,51.051788
2023-04-12T03:43:35.474Z,51.051682
2023-04-12T03:44:35.464Z,51.051704
2023-04-12T03:45:35.452Z,51.051716
2023-04-12T03:46:35.565Z,51.051689
2023-04-12T03:47:35.524Z,51.051693
2023-04-12T03:48:35.436Z,51.051674
2023-04-12T03:49:35.426Z,51.051670
2023-04-12T03:50:35.434Z,51.051651
2023-04-12T03:51:35.405Z,51.051708
2023-04-12T03:52:35.413Z,51.051674
2023-04-12T03:53:36.389Z,51.051693
2023-04-12T03:54:35.380Z,51.051682
2023-04-12T03:55:35.401Z,51.051712
2023-04-12T03:56:35.380Z,51.051735
2023-04-12T03:57:35.444Z,51.051678
2023-04-12T03:58:35.361Z,51.051559
2023-04-12T03:59:35.346Z,51.051590
2023-04-12T04:00:35.354Z,51.051579
2023-04-12T04:01:35.354Z,51.051655
2023-04-12T04:02:35.482Z,51.051659
2023-04-12T04:03:35.458Z,51.051678
2023-04-12T04:04:35.451Z,51.051704
2023-04-12T04:05:35.355Z,51.051655
2023-04-12T04:06:35.313Z,51.051674
2023-04-12T04:07:35.313Z,51.051678
2023-04-12T04:08:35.293Z,51.051670
2023-04-12T04:09:35.278Z,51.051647
2023-04-12T04:10:35.287Z,51.051613
2023-04-12T04:11:35.275Z,51.051640
2023-04-12T04:12:35.280Z,51.051617
2023-04-12T04:13:35.266Z,51.051659
2023-04-12T04:14:35.248Z,51.051670
2023-04-12T04:15:35.246Z,51.051647
2023-04-12T04:16:35.291Z,51.051655
2023-04-12T04:17:35.274Z,51.051624
2023-04-12T04:18:35.217Z,51.051605
2023-04-12T04:19:35.235Z,51.051598
2023-04-12T04:20:35.219Z,51.051601
2023-04-12T04:21:35.197Z,51.051624
2023-04-12T04:22:35.211Z,51.051617
2023-04-12T04:23:35.183Z,51.051624
2023-04-12T04:24:35.157Z,51.051620
2023-04-12T04:25:36.170Z,51.051636
2023-04-12T04:26:35.168Z,51.051620
2023-04-12T04:27:35.178Z,51.051640
2023-04-12T04:28:35.235Z,51.051647
2023-04-12T04:29:35.140Z,51.051598
2023-04-12T04:30:35.143Z,51.051582
2023-04-12T04:31:35.148Z,51.051594
2023-04-12T04:32:35.174Z,51.051617
2023-04-12T04:33:35.115Z,51.051594
2023-04-12T04:34:35.103Z,51.051620
2023-04-12T04:35:35.101Z,51.051624
2023-04-12T04:36:35.120Z,51.051643
2023-04-12T04:37:35.099Z,51.051582
2023-04-12T04:38:35.088Z,51.051666
2023-04-12T04:39:35.067Z,51.051624
2023-04-12T04:40:35.092Z,51.051598
2023-04-12T04:41:35.054Z,51.051590
2023-04-12T04:42:35.072Z,51.051605
2023-04-12T04:43:35.044Z,51.051620
2023-04-12T04:44:35.034Z,51.051647
2023-04-12T04:45:35.091Z,51.051655
2023-04-12T04:46:35.019Z,51.051651
2023-04-12T04:47:35.075Z,51.051624
2023-04-12T04:48:35.014Z,51.051647
2023-04-12T04:49:35.001Z,51.051628
2023-04-12T04:50:34.989Z,51.051628
2023-04-12T04:51:35.011Z,51.051643
2023-04-12T04:52:34.991Z,51.051620
2023-04-12T04:53:34.963Z,51.051659
2023-04-12T04:54:34.941Z,51.051689
2023-04-12T04:55:34.941Z,51.051670
2023-04-12T04:56:34.938Z,51.051620
2023-04-12T04:57:34.981Z,51.051643
2023-04-12T04:58:34.920Z,51.051640
2023-04-12T04:59:34.938Z,51.051647
2023-04-12T05:00:34.909Z,51.051620
2023-04-12T05:01:34.919Z,51.051586
2023-04-12T05:02:34.992Z,51.051674
2023-04-12T05:03:34.923Z,51.051640
2023-04-12T05:04:34.895Z,51.051701
2023-04-12T05:05:34.881Z,51.051712
2023-04-12T05:06:34.876Z,51.051659
2023-04-12T05:07:34.899Z,51.051640
2023-04-12T05:08:34.849Z,51.051628
2023-04-12T05:09:34.862Z,51.051605
2023-04-12T05:10:34.827Z,51.051613
2023-04-12T05:11:34.832Z,51.051617
2023-04-12T05:12:34.854Z,51.051659
2023-04-12T05:13:34.818Z,51.051659
2023-04-12T05:14:45.952Z,51.051651
2023-04-12T05:15:36.795Z,51.051655
2023-04-12T05:16:34.821Z,51.051697
2023-04-12T05:17:34.831Z,51.051754
2023-04-12T05:18:34.773Z,51.051708
2023-04-12T05:19:34.767Z,51.051716
2023-04-12T05:20:34.768Z,51.051655
2023-04-12T05:21:34.751Z,51.051651
2023-04-12T05:22:34.756Z,51.051647
2023-04-12T05:23:34.729Z,51.051666
2023-04-12T05:24:34.730Z,51.051521
2023-04-12T05:25:34.726Z,51.051540
2023-04-12T05:26:34.724Z,51.051563
2023-04-12T05:27:34.734Z,51.051640
2023-04-12T05:28:34.692Z,51.051659
2023-04-12T05:29:34.734Z,51.051662
2023-04-12T05:30:34.717Z,51.051651
2023-04-12T05:31:34.677Z,51.051640
2023-04-12T05:32:34.748Z,51.051609
2023-04-12T05:33:34.672Z,51.051636
2023-04-12T05:34:34.647Z,51.051693
2023-04-12T05:35:34.688Z,51.051693
2023-04-12T05:36:34.643Z,51.051697
2023-04-12T05:37:34.658Z,51.051659
2023-04-12T05:38:34.642Z,51.051632
2023-04-12T05:39:34.638Z,51.051682
2023-04-12T05:40:34.620Z,51.051662
2023-04-12T05:41:34.644Z,51.051640
2023-04-12T05:42:34.624Z,51.051632
2023-04-12T05:43:34.706Z,51.051598
2023-04-12T05:44:34.604Z,51.051624
2023-04-12T05:45:34.641Z,51.051651
2023-04-12T05:46:34.622Z,51.051617
2023-04-12T05:47:34.628Z,51.051636
2023-04-12T05:48:34.608Z,51.051605
2023-04-12T05:49:34.555Z,51.051636
2023-04-12T05:50:34.551Z,51.051636
2023-04-12T05:51:41.459Z,51.051617
2023-04-12T05:52:36.549Z,51.051632
2023-04-12T05:53:34.538Z,51.051579
2023-04-12T05:54:34.522Z,51.051624
2023-04-12T05:55:35.928Z,51.051620
2023-04-12T05:56:34.527Z,51.051643
2023-04-12T05:57:34.535Z,51.051613
2023-04-12T05:58:34.488Z,51.051640
2023-04-12T05:59:34.493Z,51.051651
2023-04-12T06:00:34.482Z,51.051617
2023-04-12T06:01:34.474Z,51.051624
2023-04-12T06:02:34.738Z,51.051601
2023-04-12T06:03:34.577Z,51.051620
2023-04-12T06:04:48.843Z,51.051617
2023-04-12T06:05:36.530Z,51.051598
2023-04-12T06:06:34.433Z,51.051609
2023-04-12T06:07:34.441Z,51.051594
2023-04-12T06:08:36.556Z,51.051613
2023-04-12T06:09:35.415Z,51.051628
2023-04-12T06:10:34.410Z,51.051632
2023-04-12T06:11:34.392Z,51.051613
2023-04-12T06:12:35.417Z,51.051613
2023-04-12T06:13:34.391Z,51.051651
2023-04-12T06:14:34.384Z,51.051590
2023-04-12T06:15:34.388Z,51.051563
2023-04-12T06:16:34.389Z,51.051579
2023-04-12T06:17:34.407Z,51.051598
2023-04-12T06:18:34.367Z,51.051590
2023-04-12T06:19:34.351Z,51.051590
2023-04-12T06:20:34.344Z,51.051590
2023-04-12T06:21:34.374Z,51.051628
2023-04-12T06:22:34.348Z,51.051666
2023-04-12T06:23:34.322Z,51.051636
2023-04-12T06:24:34.354Z,51.051605
2023-04-12T06:25:34.306Z,51.051605
2023-04-12T06:26:39.689Z,51.051620
2023-04-12T06:27:36.311Z,51.051582
2023-04-12T06:28:34.301Z,51.051590
2023-04-12T06:29:34.282Z,51.051586
2023-04-12T06:30:34.273Z,51.051582
2023-04-12T06:31:34.330Z,51.051662
2023-04-12T06:32:34.373Z,51.051659
2023-04-12T06:33:34.239Z,51.051579
2023-04-12T06:34:34.857Z,51.051643
2023-04-12T06:35:34.278Z,51.051666
2023-04-12T06:36:34.230Z,51.051647
2023-04-12T06:37:34.235Z,51.051689
2023-04-12T06:38:34.218Z,51.051697
2023-04-12T06:39:34.283Z,51.051662
2023-04-12T06:40:34.197Z,51.051647
2023-04-12T06:41:34.199Z,51.051723
2023-04-12T06:42:34.220Z,51.051674
2023-04-12T06:43:34.181Z,51.051628
2023-04-12T06:44:34.190Z,51.051628
2023-04-12T06:45:34.170Z,51.051624
2023-04-12T06:46:34.197Z,51.051617
2023-04-12T06:47:34.230Z,51.051643
2023-04-12T06:48:34.139Z,51.051662
2023-04-12T06:49:34.158Z,51.051662
2023-04-12T06:50:34.161Z,51.051655
2023-04-12T06:51:34.137Z,51.051620
2023-04-12T06:52:34.136Z,51.051636
2023-04-12T06:53:34.095Z,51.051620
2023-04-12T06:54:34.093Z,51.051605
2023-04-12T06:55:34.120Z,51.051617
2023-04-12T06:56:34.109Z,51.051628
2023-04-12T06:57:34.109Z,51.051620
2023-04-12T06:58:34.128Z,51.051628
2023-04-12T06:59:34.051Z,51.051682
2023-04-12T07:00:34.069Z,51.051655
2023-04-12T07:01:34.063Z,51.051636
2023-04-12T07:02:34.170Z,51.051640
2023-04-12T07:03:34.184Z,51.051647
2023-04-12T07:04:34.059Z,51.051643
2023-04-12T07:05:34.362Z,51.051628
2023-04-12T07:06:34.158Z,51.051605
2023-04-12T07:07:34.067Z,51.051598
2023-04-12T07:08:34.015Z,51.051605
2023-04-12T07:09:34.016Z,51.051628
2023-04-12T07:10:34.079Z,51.051666
2023-04-12T07:11:34.057Z,51.051655
2023-04-12T07:12:34.079Z,51.051628
2023-04-12T07:13:33.982Z,51.051628
2023-04-12T07:14:34.525Z,51.051643
2023-04-12T07:15:34.009Z,51.051617
2023-04-12T07:16:34.108Z,51.051662
2023-04-12T07:17:34.045Z,51.051651
2023-04-12T07:18:34.530Z,51.051613
2023-04-12T07:19:34.060Z,51.051620
2023-04-12T07:20:34.164Z,51.051556
2023-04-12T07:21:34.035Z,51.051605
2023-04-12T07:22:34.027Z,51.051640
2023-04-12T07:23:34.053Z,51.051643
2023-04-12T07:24:34.092Z,51.051632
2023-04-12T07:25:34.525Z,51.051601
2023-04-12T07:26:34.089Z,51.051655
2023-04-12T07:27:34.515Z,51.051678
2023-04-12T07:28:34.546Z,51.051617
2023-04-12T07:29:35.478Z,51.051640
2023-04-12T07:30:33.928Z,51.051636
2023-04-12T07:31:34.033Z,51.051613
2023-04-12T07:32:34.585Z,51.051640
2023-04-12T07:33:34.571Z,51.051651
2023-04-12T07:34:34.560Z,51.051632
2023-04-12T07:35:34.178Z,51.051655
2023-04-12T07:36:33.937Z,51.051659
2023-04-12T07:37:34.037Z,51.051666
2023-04-12T07:38:33.984Z,51.051651
2023-04-12T07:39:33.977Z,51.051655
2023-04-12T07:40:33.803Z,51.051636
2023-04-12T07:41:34.476Z,51.051636
2023-04-12T07:42:33.779Z,51.051662
2023-04-12T07:43:33.767Z,51.051659
2023-04-12T07:44:35.621Z,51.051647
2023-04-12T07:45:33.771Z,51.051678
2023-04-12T07:46:33.844Z,51.051666
2023-04-12T07:47:34.056Z,51.051659
2023-04-12T07:48:33.737Z,51.051670
2023-04-12T07:49:33.725Z,51.051647
2023-04-12T07:50:33.741Z,51.051624
2023-04-12T07:51:33.758Z,51.051624
2023-04-12T07:52:33.721Z,51.051624
2023-04-12T07:53:33.708Z,51.051628
2023-04-12T07:54:33.697Z,51.051662
2023-04-12T07:55:33.686Z,51.051624
2023-04-12T07:56:33.729Z,51.051647
2023-04-12T07:57:34.155Z,51.051647
2023-04-12T07:58:34.683Z,51.051636
2023-04-12T07:59:33.663Z,51.051643
2023-04-12T08:00:33.647Z,51.051662
2023-04-12T08:01:33.658Z,51.051662
2023-04-12T08:02:33.777Z,51.051617
2023-04-12T08:03:33.771Z,51.051643
2023-04-12T08:04:33.632Z,51.051697
2023-04-12T08:05:33.657Z,51.051655
2023-04-12T08:06:34.359Z,51.051628
2023-04-12T08:07:34.603Z,51.051617
2023-04-12T08:08:34.039Z,51.051651
2023-04-12T08:09:33.608Z,51.051640
2023-04-12T08:10:33.581Z,51.051655
2023-04-12T08:11:33.622Z,51.051655
2023-04-12T08:12:33.566Z,51.051640
2023-04-12T08:13:33.569Z,51.051643
2023-04-12T08:14:33.566Z,51.051655
2023-04-12T08:15:33.596Z,51.051678
2023-04-12T08:16:33.577Z,51.051678
2023-04-12T08:17:33.545Z,51.051613
2023-04-12T08:18:33.527Z,51.051640
2023-04-12T08:19:33.519Z,51.051582
2023-04-12T08:20:33.531Z,51.051666
2023-04-12T08:21:33.519Z,51.051651
2023-04-12T08:22:33.497Z,51.051678
2023-04-12T08:23:33.522Z,51.051640
2023-04-12T08:24:33.497Z,51.051666
2023-04-12T08:25:33.474Z,51.051647
2023-04-12T08:26:33.620Z,51.051651
2023-04-12T08:27:33.461Z,51.051647
2023-04-12T08:28:33.495Z,51.051624
2023-04-12T08:29:33.450Z,51.051685
2023-04-12T08:30:33.465Z,51.051708
2023-04-12T08:31:33.485Z,51.051655
2023-04-12T08:32:33.504Z,51.051647
2023-04-12T08:33:33.454Z,51.051632
2023-04-12T08:34:33.432Z,51.051636
2023-04-12T08:35:33.482Z,51.051666
2023-04-12T08:36:33.429Z,51.051670
2023-04-12T08:37:33.429Z,51.051659
2023-04-12T08:38:44.985Z,51.051651
2023-04-12T08:39:35.438Z,51.051624
2023-04-12T08:40:33.373Z,51.051575
2023-04-12T08:41:33.399Z,51.051628
2023-04-12T08:42:33.362Z,51.051624
2023-04-12T08:43:33.349Z,51.051647
2023-04-12T08:44:33.364Z,51.051712
2023-04-12T08:45:33.345Z,51.051678
2023-04-12T08:46:33.376Z,51.051662
2023-04-12T08:47:33.361Z,51.051651
2023-04-12T08:48:33.311Z,51.051670
2023-04-12T08:49:33.317Z,51.051609
2023-04-12T08:50:33.308Z,51.051613
2023-04-12T08:51:33.385Z,51.051609
2023-04-12T08:52:33.314Z,51.051620
2023-04-12T08:53:33.299Z,51.051685
2023-04-12T08:54:33.268Z,51.051689
2023-04-12T08:55:33.266Z,51.051662
2023-04-12T08:56:33.331Z,51.051685
2023-04-12T08:57:33.257Z,51.051689
2023-04-12T08:58:33.250Z,51.051682
2023-04-12T08:59:33.245Z,51.051670
2023-04-12T09:00:33.251Z,51.051643
2023-04-12T09:01:33.293Z,51.051647
2023-04-12T09:02:33.336Z,51.051647
2023-04-12T09:03:33.830Z,51.051640
2023-04-12T09:04:34.385Z,51.051651
2023-04-12T09:05:33.192Z,51.051620
2023-04-12T09:06:33.215Z,51.051605
2023-04-12T09:07:33.193Z,51.051590
2023-04-12T09:08:33.174Z,51.051609
2023-04-12T09:09:33.188Z,51.051609
2023-04-12T09:10:33.172Z,51.051586
2023-04-12T09:11:33.212Z,51.051640
2023-04-12T09:12:33.160Z,51.051685
2023-04-12T09:13:33.137Z,51.051674
2023-04-12T09:14:33.134Z,51.051685
2023-04-12T09:15:33.120Z,51.051685
2023-04-12T09:16:33.170Z,51.051674
2023-04-12T09:17:33.141Z,51.051685
2023-04-12T09:18:33.117Z,51.051651
2023-04-12T09:19:33.100Z,51.051666
2023-04-12T09:20:33.098Z,51.051643
2023-04-12T09:21:33.104Z,51.051640
2023-04-12T09:22:33.099Z,51.051647
2023-04-12T09:23:33.080Z,51.051659
2023-04-12T09:24:33.094Z,51.051624
2023-04-12T09:25:33.071Z,51.051666
2023-04-12T09:26:33.048Z,51.051670
2023-04-12T09:27:34.204Z,51.051670
2023-04-12T09:28:33.053Z,51.051670
2023-04-12T09:29:33.025Z,51.051678
2023-04-12T09:30:33.034Z,51.051651
2023-04-12T09:31:33.067Z,51.051662
2023-04-12T09:32:33.031Z,51.051708
2023-04-12T09:33:32.987Z,51.051723
2023-04-12T09:34:32.986Z,51.051693
2023-04-12T09:35:33.025Z,51.051651
2023-04-12T09:36:33.035Z,51.051689
2023-04-12T09:37:33.010Z,51.051655
2023-04-12T09:38:32.961Z,51.051704
2023-04-12T09:39:32.977Z,51.051697
2023-04-12T09:40:32.952Z,51.051693
2023-04-12T09:41:32.948Z,51.051746
2023-04-12T09:42:34.357Z,51.051727
2023-04-12T09:43:34.094Z,51.051666
2023-04-12T09:44:33.000Z,51.051659
2023-04-12T09:45:32.982Z,51.051620
2023-04-12T09:46:32.908Z,51.051758
2023-04-12T09:47:33.059Z,51.051765
2023-04-12T09:48:32.964Z,51.051682
2023-04-12T09:49:33.025Z,51.051647
2023-04-12T09:50:32.920Z,51.051659
2023-04-12T09:51:32.993Z,51.051563
2023-04-12T09:52:33.875Z,51.051758
2023-04-12T09:53:32.929Z,51.051758
2023-04-12T09:54:32.858Z,51.051659
2023-04-12T09:55:33.424Z,51.051659
2023-04-12T09:56:32.873Z,51.051674
2023-04-12T09:57:33.398Z,51.051655
2023-04-12T09:58:32.885Z,51.051666
2023-04-12T09:59:32.996Z,51.051662
2023-04-12T10:00:33.368Z,51.051712
2023-04-12T10:01:33.460Z,51.051643
2023-04-12T10:02:33.113Z,51.051670
2023-04-12T10:03:33.542Z,51.051689
2023-04-12T10:04:33.915Z,51.051632
2023-04-12T10:05:33.556Z,51.051701
2023-04-12T10:06:32.981Z,51.051640
2023-04-12T10:07:32.909Z,51.051632
2023-04-12T10:08:32.948Z,51.051632
2023-04-12T10:09:33.368Z,51.051647
2023-04-12T10:10:32.939Z,51.051674
2023-04-12T10:11:33.014Z,51.051708
2023-04-12T10:12:32.903Z,51.051723
2023-04-12T10:13:32.881Z,51.051701
2023-04-12T10:14:32.810Z,51.051739
2023-04-12T10:15:32.932Z,51.051670
2023-04-12T10:16:33.370Z,51.051628
2023-04-12T10:17:32.729Z,51.051640
2023-04-12T10:18:32.673Z,51.051640
2023-04-12T10:19:32.894Z,51.051666
2023-04-12T10:20:32.673Z,51.051636
2023-04-12T10:21:32.894Z,51.051624
2023-04-12T10:22:32.959Z,51.051670
2023-04-12T10:23:32.633Z,51.051651
2023-04-12T10:24:32.677Z,51.051594
2023-04-12T10:25:32.607Z,51.051632
2023-04-12T10:26:32.630Z,51.051640
2023-04-12T10:27:33.333Z,51.051624
2023-04-12T10:28:32.602Z,51.051617
2023-04-12T10:29:32.600Z,51.051640
2023-04-12T10:30:32.698Z,51.051693
2023-04-12T10:31:32.633Z,51.051651
2023-04-12T10:32:35.322Z,51.051617
2023-04-12T10:33:32.572Z,51.051632
2023-04-12T10:34:32.601Z,51.051624
2023-04-12T10:35:32.599Z,51.051632
2023-04-12T10:36:32.610Z,51.051624
2023-04-12T10:37:32.893Z,51.051613
2023-04-12T10:38:36.004Z,51.051613
2023-04-12T10:39:33.560Z,51.051590
2023-04-12T10:40:32.506Z,51.051590
2023-04-12T10:41:32.558Z,51.051609
2023-04-12T10:42:32.536Z,51.051628
2023-04-12T10:43:32.494Z,51.051624
2023-04-12T10:44:32.486Z,51.051628
2023-04-12T10:45:32.488Z,51.051624
2023-04-12T10:46:32.515Z,51.051620
2023-04-12T10:47:32.532Z,51.051620
2023-04-12T10:48:32.464Z,51.051620
2023-04-12T10:49:32.543Z,51.051655
2023-04-12T10:50:32.517Z,51.051632
2023-04-12T10:51:32.464Z,51.051617
2023-04-12T10:52:32.489Z,51.051605
2023-04-12T10:53:32.407Z,51.051620
2023-04-12T10:54:32.526Z,51.051624
2023-04-12T10:55:32.413Z,51.051624
2023-04-12T10:56:32.812Z,51.051609
2023-04-12T10:57:32.406Z,51.051605
2023-04-12T10:58:32.392Z,51.051632
2023-04-12T10:59:47.023Z,51.051636
2023-04-12T11:00:34.428Z,51.051601
2023-04-12T11:01:32.760Z,51.051605
2023-04-12T11:02:32.535Z,51.051636
2023-04-12T11:03:32.622Z,51.051636
2023-04-12T11:04:32.382Z,51.051575
2023-04-12T11:05:32.696Z,51.051582
2023-04-12T11:06:32.325Z,51.051590
2023-04-12T11:07:32.370Z,51.051651
2023-04-12T11:08:32.316Z,51.051674
2023-04-12T11:09:32.382Z,51.051617
2023-04-12T11:10:32.327Z,51.051632
2023-04-12T11:11:32.297Z,51.051601
2023-04-12T11:12:32.345Z,51.051620
2023-04-12T11:13:32.292Z,51.051605
2023-04-12T11:14:32.303Z,51.051624
2023-04-12T11:15:32.322Z,51.051624
2023-04-12T11:16:32.276Z,51.051590
2023-04-12T11:17:32.540Z,51.051632
2023-04-12T11:18:32.368Z,51.051632
2023-04-12T11:19:32.256Z,51.051674
2023-04-12T11:20:32.264Z,51.051620
2023-04-12T11:21:32.228Z,51.051651
2023-04-12T11:22:32.277Z,51.051613
2023-04-12T11:23:32.265Z,51.051582
2023-04-12T11:24:32.212Z,51.051563